Time;durP1;ratioP1;P1;durP2;ratioP2;P2;SDS_P1;SDS_P2;PMS_P1;PMS_P2;Temp;Humidity;BMP_temperature;BMP_pressure;BME280_temperature;BME280_humidity;BME280_pressure;Samples;Min_cycle;Max_cycle;Signal;HPM_P1;HPM_P2
2022/07/14 00:02:07;;;;;;;;;;;;;;;23.78;42.88;96062.06;10512618;28;1859;-74
2022/07/14 00:07:08;;;;;;;;;;;;;;;23.80;42.80;96061.81;10493743;28;1967;-75
2022/07/14 00:12:08;;;;;;;;;;;;;;;23.80;42.92;96053.84;10479152;28;1985;-75
2022/07/14 00:17:08;;;;;;;;;;;;;;;23.80;43.08;96056.50;10480708;28;1815;-77
2022/07/14 00:22:09;;;;;;;;;;;;;;;23.81;42.87;96044.81;10510966;28;1860;-75
2022/07/14 00:27:09;;;;;;;;;;;;;;;23.81;42.91;96036.88;10519327;28;1922;-75
2022/07/14 00:32:09;;;;;;;;;;;;;;;23.81;43.14;96027.09;10505876;28;1792;-75
2022/07/14 00:37:10;;;;;;;;;;;;;;;23.82;43.16;96020.72;10529602;28;1894;-75
2022/07/14 00:42:10;;;;;;;;;;;;;;;23.82;43.31;96020.72;10504214;28;1830;-76
2022/07/14 00:47:11;;;;;;;;;;;;;;;23.83;43.29;96027.59;10525180;28;1902;-76
2022/07/14 00:52:11;;;;;;;;;;;;;;;23.82;43.20;96023.34;10522777;28;1918;-75
2022/07/14 00:57:12;;;;;;;;;;;;;;;23.82;43.23;96026.00;10505914;28;1757;-76
2022/07/14 01:02:12;;;;;;;;;;;;;;;23.84;43.17;96028.38;10518135;28;1752;-75
2022/07/14 01:07:13;;;;;;;;;;;;;;;23.85;43.26;96029.94;10504930;28;1963;-75
2022/07/14 01:12:13;;;;;;;;;;;;;;;23.84;43.21;96018.59;10521024;28;1884;-74
2022/07/14 01:17:15;;;;;;;;;;;;;;;23.86;43.51;96032.31;10519978;28;1867;-76
2022/07/14 01:22:15;;;;;;;;;;;;;;;23.86;43.61;96040.25;10519920;28;1834;-75
2022/07/14 01:27:28;;;;;;;;;;;;;;;23.84;43.55;96042.41;10505089;28;1906;-76
2022/07/14 01:32:40;;;;;;;;;;;;;;;23.85;43.37;96037.88;10492691;28;1883;-75
2022/07/14 01:37:42;;;;;;;;;;;;;;;23.85;43.71;96033.38;10518469;28;1956;-74
2022/07/14 01:42:43;;;;;;;;;;;;;;;23.87;43.41;96011.91;10500146;28;1839;-75
2022/07/14 01:47:45;;;;;;;;;;;;;;;23.86;43.81;96016.44;10522150;28;1910;-76
2022/07/14 01:52:45;;;;;;;;;;;;;;;23.87;43.69;96007.41;10520280;28;1926;-75
2022/07/14 01:57:46;;;;;;;;;;;;;;;23.87;43.78;96007.41;10520034;28;1967;-77
2022/07/14 02:02:46;;;;;;;;;;;;;;;23.87;43.77;95990.72;10487699;28;1872;-76
2022/07/14 02:07:47;;;;;;;;;;;;;;;23.87;43.70;95985.44;10518874;28;1905;-76
2022/07/14 02:12:47;;;;;;;;;;;;;;;23.87;43.85;96004.75;10501852;28;2022;-75
2022/07/14 02:17:48;;;;;;;;;;;;;;;23.87;43.64;96011.91;10487991;28;2019;-75
2022/07/14 02:22:49;;;;;;;;;;;;;;;23.87;43.75;96018.00;10503251;28;1804;-76
2022/07/14 02:27:50;;;;;;;;;;;;;;;23.87;43.83;96007.41;10514711;28;1965;-74
2022/07/14 02:32:50;;;;;;;;;;;;;;;23.87;43.70;96018.00;10497595;28;1796;-75
2022/07/14 02:37:51;;;;;;;;;;;;;;;23.87;43.62;96012.69;10517445;28;1973;-74
2022/07/14 02:42:52;;;;;;;;;;;;;;;23.88;43.70;96010.84;10500461;28;2059;-76
2022/07/14 02:47:53;;;;;;;;;;;;;;;23.87;43.63;96023.28;10484959;28;2005;-76
2022/07/14 02:52:54;;;;;;;;;;;;;;;23.88;43.73;96018.78;10518649;28;1771;-77
2022/07/14 02:57:54;;;;;;;;;;;;;;;23.87;43.64;96018.00;10499314;28;1854;-77
2022/07/14 03:02:55;;;;;;;;;;;;;;;23.88;43.59;96018.78;10516730;28;1886;-77
2022/07/14 03:07:55;;;;;;;;;;;;;;;23.87;43.69;96010.06;10495948;28;1913;-74
2022/07/14 03:12:56;;;;;;;;;;;;;;;23.87;43.47;96007.41;10501451;28;1839;-76
2022/07/14 03:17:56;;;;;;;;;;;;;;;23.88;43.49;96001.06;10517243;28;1843;-74
2022/07/14 03:22:56;;;;;;;;;;;;;;;23.88;43.39;96014.28;10520173;28;1882;-74
2022/07/14 03:27:57;;;;;;;;;;;;;;;23.88;43.55;96008.19;10501348;28;1959;-76
2022/07/14 03:32:57;;;;;;;;;;;;;;;23.87;43.71;96020.66;10519215;28;1277;-74
2022/07/14 03:37:58;;;;;;;;;;;;;;;23.87;43.49;96023.28;10504691;28;1508;-75
2022/07/14 03:43:00;;;;;;;;;;;;;;;23.87;43.56;96006.63;10478361;28;1832;-75
2022/07/14 03:48:01;;;;;;;;;;;;;;;23.77;42.45;96010.22;10518597;28;1981;-75
2022/07/14 03:53:01;;;;;;;;;;;;;;;23.60;41.68;96001.97;10499149;28;1835;-75
2022/07/14 03:58:01;;;;;;;;;;;;;;;23.55;41.83;95993.34;10505238;28;1831;-75
2022/07/14 04:03:02;;;;;;;;;;;;;;;23.49;41.79;96003.22;10474386;28;1990;-75
2022/07/14 04:08:02;;;;;;;;;;;;;;;23.45;41.52;95999.56;10482879;28;1963;-75
2022/07/14 04:13:02;;;;;;;;;;;;;;;23.41;41.46;96009.91;10499095;28;1838;-75
2022/07/14 04:18:03;;;;;;;;;;;;;;;23.40;41.82;96021.59;10506136;28;1828;-76
2022/07/14 04:23:03;;;;;;;;;;;;;;;23.37;41.38;96024.00;10518251;28;1912;-75
2022/07/14 04:28:03;;;;;;;;;;;;;;;23.33;41.53;96025.63;10515502;28;2035;-75
2022/07/14 04:33:04;;;;;;;;;;;;;;;23.32;41.27;96029.34;10533887;28;1882;-76
2022/07/14 04:38:06;;;;;;;;;;;;;;;23.31;41.37;96030.38;10525154;28;1938;-76
2022/07/14 04:43:06;;;;;;;;;;;;;;;23.30;41.27;96039.41;10515474;28;2696;-74
2022/07/14 04:48:06;;;;;;;;;;;;;;;23.34;41.07;96037.81;10514431;28;1898;-75
2022/07/14 04:53:06;;;;;;;;;;;;;;;23.35;41.03;96031.41;10509914;28;1792;-75
2022/07/14 04:58:08;;;;;;;;;;;;;;;23.36;41.10;96031.16;10513130;28;1799;-75
2022/07/14 05:03:09;;;;;;;;;;;;;;;23.36;41.14;96027.72;10500303;28;1858;-75
2022/07/14 05:08:09;;;;;;;;;;;;;;;23.37;40.92;96029.28;10494339;28;1905;-76
2022/07/14 05:13:10;;;;;;;;;;;;;;;23.35;41.06;96032.22;10516753;28;1858;-74
2022/07/14 05:18:11;;;;;;;;;;;;;;;23.40;40.96;96039.31;10515505;28;1799;-75
2022/07/14 05:23:11;;;;;;;;;;;;;;;23.37;41.13;96043.28;10515270;28;1860;-75
2022/07/14 05:28:11;;;;;;;;;;;;;;;23.37;40.76;96037.22;10497655;28;1981;-75
2022/07/14 05:33:12;;;;;;;;;;;;;;;23.36;40.71;96033.81;10501366;28;1883;-75
2022/07/14 05:38:12;;;;;;;;;;;;;;;23.39;40.73;96041.16;10513063;28;1878;-75
2022/07/14 05:43:14;;;;;;;;;;;;;;;23.42;41.00;96037.16;10511827;28;1876;-76
2022/07/14 05:48:14;;;;;;;;;;;;;;;23.45;40.73;96042.66;10511718;28;1910;-71
2022/07/14 05:53:16;;;;;;;;;;;;;;;23.47;39.90;96023.09;10517068;28;1777;-71
2022/07/14 05:58:16;;;;;;;;;;;;;;;23.53;39.51;96016.66;10513909;28;1759;-72
2022/07/14 06:03:20;;;;;;;;;;;;;;;23.48;38.88;96022.78;10516374;28;1814;-71
2022/07/14 06:08:21;;;;;;;;;;;;;;;23.55;38.85;96020.59;10508000;28;1972;-70
2022/07/14 06:13:25;;;;;;;;;;;;;;;23.48;38.10;96019.34;10501424;28;1888;-71
2022/07/14 06:18:25;;;;;;;;;;;;;;;23.54;37.38;96016.34;10498486;28;1855;-71
2022/07/14 06:23:25;;;;;;;;;;;;;;;23.55;36.71;96015.31;10500911;28;1884;-71
2022/07/14 06:28:26;;;;;;;;;;;;;;;23.57;36.70;96013.16;10480200;28;1938;-71
2022/07/14 06:33:26;;;;;;;;;;;;;;;23.65;36.87;96003.78;10513428;28;1983;-71
2022/07/14 06:38:27;;;;;;;;;;;;;;;23.67;36.88;96007.72;10517262;28;1782;-72
2022/07/14 06:43:27;;;;;;;;;;;;;;;23.72;36.46;95997.03;10516723;28;1909;-73
2022/07/14 06:48:27;;;;;;;;;;;;;;;23.73;36.19;95993.34;10517392;28;1976;-72
2022/07/14 06:53:28;;;;;;;;;;;;;;;23.83;35.89;95987.88;10514254;28;2017;-72
2022/07/14 06:58:30;;;;;;;;;;;;;;;23.85;36.22;95983.09;10520789;28;1779;-70
2022/07/14 07:03:30;;;;;;;;;;;;;;;23.84;35.59;95981.53;10501713;28;1836;-73
2022/07/14 07:08:30;;;;;;;;;;;;;;;23.84;34.75;95967.50;10520716;28;1918;-71
2022/07/14 07:13:31;;;;;;;;;;;;;;;23.81;35.09;95971.50;10510342;28;1853;-71
2022/07/14 07:18:34;;;;;;;;;;;;;;;23.78;35.53;95960.72;10509375;28;1816;-71
2022/07/14 07:23:34;;;;;;;;;;;;;;;23.78;36.17;95964.13;10496376;28;1835;-72
2022/07/14 07:28:34;;;;;;;;;;;;;;;23.78;36.03;95964.13;10513531;28;1938;-72
2022/07/14 07:33:35;;;;;;;;;;;;;;;23.78;35.68;95971.31;10512350;28;1899;-72
2022/07/14 07:38:35;;;;;;;;;;;;;;;23.78;36.21;95963.34;10517030;28;1842;-70
2022/07/14 07:43:36;;;;;;;;;;;;;;;23.77;36.02;95959.91;10500559;28;1915;-71
2022/07/14 07:48:36;;;;;;;;;;;;;;;23.76;35.72;95955.69;10497559;28;1973;-71
2022/07/14 07:53:36;;;;;;;;;;;;;;;23.77;36.23;95944.03;10497232;28;1771;-71
2022/07/14 07:58:37;;;;;;;;;;;;;;;23.78;36.47;95942.19;10511946;28;1839;-70
2022/07/14 08:03:37;;;;;;;;;;;;;;;23.80;37.15;95932.84;10498411;28;1896;-73
2022/07/14 08:08:38;;;;;;;;;;;;;;;23.83;37.26;95931.50;10511781;28;1901;-71
2022/07/14 08:13:40;;;;;;;;;;;;;;;23.85;37.27;95932.78;10517896;28;1823;-71
2022/07/14 08:18:41;;;;;;;;;;;;;;;23.86;37.52;95925.63;10509728;28;1938;-71
2022/07/14 08:23:42;;;;;;;;;;;;;;;23.86;37.94;95918.47;10518098;28;1855;-70
2022/07/14 08:28:42;;;;;;;;;;;;;;;23.86;38.05;95907.91;10500129;28;1996;-71
2022/07/14 08:33:42;;;;;;;;;;;;;;;23.86;38.00;95905.25;10482171;28;1853;-70
2022/07/14 08:38:43;;;;;;;;;;;;;;;23.87;37.88;95896.22;10511510;28;1850;-70
2022/07/14 08:43:44;;;;;;;;;;;;;;;23.88;38.29;95897.00;10508536;28;1861;-70
2022/07/14 08:48:45;;;;;;;;;;;;;;;23.88;38.36;95887.22;10504296;28;1970;-71
2022/07/14 08:53:46;;;;;;;;;;;;;;;23.89;38.31;95894.06;10492573;28;1846;-70
2022/07/14 08:58:47;;;;;;;;;;;;;;;23.91;38.53;95891.13;10515142;28;1823;-69
2022/07/14 09:03:51;;;;;;;;;;;;;;;23.90;38.68;95895.66;10523139;28;1863;-72
2022/07/14 09:08:56;;;;;;;;;;;;;;;23.90;38.84;95890.34;10520557;28;2114;-72
2022/07/14 09:14:07;;;;;;;;;;;;;;;23.92;39.18;95882.13;10505944;28;1858;-72
2022/07/14 09:19:08;;;;;;;;;;;;;;;23.93;39.15;95868.56;10517514;28;1814;-70
2022/07/14 09:24:09;;;;;;;;;;;;;;;23.92;39.04;95871.53;10517320;28;1833;-70
2022/07/14 09:29:15;;;;;;;;;;;;;;;23.94;39.07;95859.56;10519250;28;1921;-71
2022/07/14 09:34:26;;;;;;;;;;;;;;;23.94;39.54;95859.56;10515471;28;1811;-71
2022/07/14 09:39:26;;;;;;;;;;;;;;;23.95;39.43;95861.13;10516118;28;1866;-71
2022/07/14 09:44:27;;;;;;;;;;;;;;;23.95;39.42;95850.53;10517603;28;1917;-70
2022/07/14 09:49:28;;;;;;;;;;;;;;;23.95;39.51;95842.59;10519426;28;1795;-72
2022/07/14 09:54:37;;;;;;;;;;;;;;;23.97;39.75;95835.13;10515804;28;1814;-72
2022/07/14 09:59:53;;;;;;;;;;;;;;;23.95;40.04;95829.34;10512377;28;1887;-72
2022/07/14 10:04:55;;;;;;;;;;;;;;;23.99;39.94;95825.03;10518425;28;2072;-72
2022/07/14 10:10:03;;;;;;;;;;;;;;;24.00;39.93;95813.38;10493235;28;1828;-71
2022/07/14 10:15:08;;;;;;;;;;;;;;;24.02;40.08;95808.59;10506583;28;1860;-71
2022/07/14 10:20:10;;;;;;;;;;;;;;;24.03;40.34;95807.53;10519035;28;1871;-72
2022/07/14 10:25:10;;;;;;;;;;;;;;;24.04;40.14;95797.72;10503465;28;2005;-72
2022/07/14 10:30:11;;;;;;;;;;;;;;;24.04;40.16;95795.88;10495921;28;1950;-72
2022/07/14 10:35:23;;;;;;;;;;;;;;;24.05;40.59;95786.81;10515168;28;1928;-71
2022/07/14 10:40:27;;;;;;;;;;;;;;;24.06;40.37;95788.41;10514476;28;1926;-72
2022/07/14 10:45:28;;;;;;;;;;;;;;;24.07;40.38;95787.31;10497538;28;1922;-71
2022/07/14 10:50:28;;;;;;;;;;;;;;;24.07;40.46;95783.91;10500460;28;1749;-71
2022/07/14 10:55:28;;;;;;;;;;;;;;;24.08;40.54;95783.59;10518505;28;1823;-71
2022/07/14 11:00:44;;;;;;;;;;;;;;;24.10;40.81;95773.50;10508343;28;2012;-71
2022/07/14 11:06:01;;;;;;;;;;;;;;;24.11;40.92;95763.69;10497196;28;1905;-72
2022/07/14 11:11:02;;;;;;;;;;;;;;;24.11;40.56;95758.41;10515630;28;1822;-71
2022/07/14 11:16:03;;;;;;;;;;;;;;;24.12;40.60;95760.75;10518033;28;1933;-71
2022/07/14 11:21:14;;;;;;;;;;;;;;;24.12;40.96;95750.16;10512713;28;1898;-72
2022/07/14 11:26:33;;;;;;;;;;;;;;;24.13;41.04;95741.09;10499815;28;1906;-71
2022/07/14 11:31:49;;;;;;;;;;;;;;;24.14;41.05;95736.59;10513041;28;1900;-72
2022/07/14 11:37:00;;;;;;;;;;;;;;;24.15;41.06;95728.34;10496000;28;1813;-73
2022/07/14 11:42:06;;;;;;;;;;;;;;;24.15;41.11;95731.00;10509120;28;1806;-72
2022/07/14 11:47:30;;;;;;;;;;;;;;;24.16;40.96;95722.00;10492893;28;1977;-73
2022/07/14 11:52:31;;;;;;;;;;;;;;;24.18;41.16;95714.53;10518004;28;1792;-72
2022/07/14 11:57:31;;;;;;;;;;;;;;;24.17;41.11;95715.59;10510459;28;1870;-73
2022/07/14 12:02:32;;;;;;;;;;;;;;;24.18;41.28;95711.09;10510090;28;1784;-72
2022/07/14 12:07:55;;;;;;;;;;;;;;;24.18;40.94;95701.28;10518415;28;1906;-72
2022/07/14 12:12:56;;;;;;;;;;;;;;;24.18;41.46;95697.84;10508355;28;1787;-73
2022/07/14 12:17:56;;;;;;;;;;;;;;;24.19;41.50;95689.59;10506989;28;1795;-72
2022/07/14 12:22:56;;;;;;;;;;;;;;;24.21;41.60;95678.72;10504160;28;1752;-71
2022/07/14 12:28:00;;;;;;;;;;;;;;;24.21;41.64;95678.72;10487297;28;1906;-71
2022/07/14 12:33:01;;;;;;;;;;;;;;;24.21;41.67;95668.13;10521287;28;1850;-71
2022/07/14 12:38:01;;;;;;;;;;;;;;;24.22;41.74;95674.97;10521439;28;1819;-72
2022/07/14 12:43:03;;;;;;;;;;;;;;;24.23;41.85;95665.97;10500180;28;1821;-72
2022/07/14 12:48:10;;;;;;;;;;;;;;;24.23;41.83;95658.03;10485690;28;1910;-73
2022/07/14 12:53:11;;;;;;;;;;;;;;;24.24;41.70;95647.13;10516896;28;1865;-72
2022/07/14 12:58:12;;;;;;;;;;;;;;;24.24;41.64;95638.38;10524211;28;1927;-71
2022/07/14 13:03:13;;;;;;;;;;;;;;;24.24;41.69;95633.09;10503062;28;2139;-71
2022/07/14 13:08:33;;;;;;;;;;;;;;;24.24;41.74;95633.09;10519462;28;1976;-72
2022/07/14 13:13:37;;;;;;;;;;;;;;;24.25;41.79;95624.84;10517270;28;1841;-72
2022/07/14 13:18:37;;;;;;;;;;;;;;;24.27;42.03;95615.81;10505064;28;1738;-71
2022/07/14 13:23:38;;;;;;;;;;;;;;;24.27;41.87;95616.59;10502301;28;1888;-71
2022/07/14 13:28:39;;;;;;;;;;;;;;;24.28;42.08;95604.91;10498747;28;2009;-71
2022/07/14 13:33:40;;;;;;;;;;;;;;;24.29;41.74;95600.41;10516181;28;1860;-72
2022/07/14 13:38:41;;;;;;;;;;;;;;;24.29;41.68;95584.50;10524121;28;1866;-71
2022/07/14 13:43:42;;;;;;;;;;;;;;;24.29;41.99;95579.22;10520397;28;1785;-71
2022/07/14 13:48:42;;;;;;;;;;;;;;;24.30;42.14;95572.84;10504951;28;1976;-71
2022/07/14 13:53:42;;;;;;;;;;;;;;;24.27;42.23;95568.94;10519152;28;1957;-72
2022/07/14 13:58:43;;;;;;;;;;;;;;;24.31;42.14;95572.53;10521138;28;1827;-72
2022/07/14 14:03:43;;;;;;;;;;;;;;;24.31;42.13;95569.09;10522131;28;1871;-71
2022/07/14 14:08:43;;;;;;;;;;;;;;;24.31;42.25;95563.81;10520816;28;1971;-71
2022/07/14 14:13:44;;;;;;;;;;;;;;;24.28;41.78;95564.41;10518541;28;1854;-72
2022/07/14 14:18:44;;;;;;;;;;;;;;;24.29;41.80;95565.97;10523788;28;1891;-71
2022/07/14 14:23:45;;;;;;;;;;;;;;;24.31;42.03;95545.25;10510300;28;1891;-73
2022/07/14 14:28:46;;;;;;;;;;;;;;;24.30;42.17;95551.66;10520286;28;1890;-72
2022/07/14 14:33:47;;;;;;;;;;;;;;;24.33;42.27;95556.34;10522534;28;1824;-73
2022/07/14 14:38:48;;;;;;;;;;;;;;;24.32;41.83;95552.13;10520385;28;1816;-71
2022/07/14 14:43:48;;;;;;;;;;;;;;;24.31;41.56;95534.66;10515070;28;2294;-72
2022/07/14 14:48:49;;;;;;;;;;;;;;;24.29;41.57;95547.44;10523744;28;1961;-72
2022/07/14 14:53:49;;;;;;;;;;;;;;;24.33;41.27;95532.50;10506830;28;2250;-72
2022/07/14 14:58:50;;;;;;;;;;;;;;;24.32;41.41;95536.25;10528962;28;1857;-72
2022/07/14 15:03:50;;;;;;;;;;;;;;;24.28;41.09;95530.00;10518434;28;1922;-72
2022/07/14 15:08:51;;;;;;;;;;;;;;;24.32;41.38;95523.75;10520497;28;1910;-72
2022/07/14 15:13:52;;;;;;;;;;;;;;;24.32;41.17;95525.66;10516887;28;1958;-71
2022/07/14 15:18:52;;;;;;;;;;;;;;;24.32;40.99;95515.06;10505034;28;1848;-71
2022/07/14 15:23:53;;;;;;;;;;;;;;;24.29;40.96;95513.78;10523781;28;1868;-72
2022/07/14 15:28:53;;;;;;;;;;;;;;;24.30;41.00;95506.63;10509676;28;2029;-72
2022/07/14 15:33:53;;;;;;;;;;;;;;;24.30;41.03;95493.38;10514411;28;1900;-72
2022/07/14 15:44:13;;;;;;;;;;;;;;;24.33;41.59;95496.19;10510855;28;1783;-71
2022/07/14 15:49:13;;;;;;;;;;;;;;;24.37;41.31;95472.53;10519708;28;1905;-70
2022/07/14 15:54:13;;;;;;;;;;;;;;;24.38;41.54;95455.56;10510691;28;1788;-70
2022/07/14 15:59:14;;;;;;;;;;;;;;;24.39;41.60;95449.16;10500989;28;1792;-72
2022/07/14 16:04:14;;;;;;;;;;;;;;;24.40;42.00;95450.75;10516437;28;1812;-70
2022/07/14 16:09:15;;;;;;;;;;;;;;;24.40;42.05;95432.94;10514336;28;1981;-71
2022/07/14 16:14:15;;;;;;;;;;;;;;;24.41;42.23;95428.44;10499676;28;1851;-71
2022/07/14 16:19:16;;;;;;;;;;;;;;;24.43;42.24;95421.75;10518241;28;1842;-71
2022/07/14 16:24:16;;;;;;;;;;;;;;;24.45;42.05;95424.09;10504184;28;1892;-71
2022/07/14 16:29:16;;;;;;;;;;;;;;;24.44;42.33;95435.78;10501743;28;1910;-71
2022/07/14 16:34:16;;;;;;;;;;;;;;;24.46;42.13;95438.91;10503571;28;1903;-71
2022/07/14 16:39:17;;;;;;;;;;;;;;;24.46;42.53;95442.31;10502416;28;1874;-71
2022/07/14 16:44:19;;;;;;;;;;;;;;;24.47;42.33;95453.72;10522280;28;1859;-71
2022/07/14 16:49:20;;;;;;;;;;;;;;;24.48;42.39;95444.69;10519871;28;1910;-71
2022/07/14 16:54:20;;;;;;;;;;;;;;;24.48;42.60;95440.19;10516820;28;1840;-71
2022/07/14 16:59:21;;;;;;;;;;;;;;;24.48;42.58;95452.63;10517558;28;1779;-71
2022/07/14 17:04:21;;;;;;;;;;;;;;;24.50;42.51;95431.91;10517830;28;1812;-72
2022/07/14 17:09:22;;;;;;;;;;;;;;;24.52;42.53;95421.78;10514947;28;1971;-70
2022/07/14 17:14:22;;;;;;;;;;;;;;;24.51;42.58;95422.88;10527324;28;1807;-71
2022/07/14 17:19:22;;;;;;;;;;;;;;;24.52;42.71;95417.28;10530877;28;1886;-72
2022/07/14 17:24:23;;;;;;;;;;;;;;;24.52;42.74;95414.63;10525870;28;1844;-71
2022/07/14 17:29:24;;;;;;;;;;;;;;;24.54;42.94;95419.63;10528183;28;1967;-71
2022/07/14 17:34:24;;;;;;;;;;;;;;;24.54;42.84;95430.22;10515869;28;1855;-71
2022/07/14 17:39:24;;;;;;;;;;;;;;;24.55;42.66;95431.75;10520262;28;1990;-71
2022/07/14 17:44:25;;;;;;;;;;;;;;;24.53;42.77;95439.25;10511176;28;1859;-70
2022/07/14 17:49:25;;;;;;;;;;;;;;;24.54;42.95;95435.53;10526765;28;1917;-70
2022/07/14 17:54:25;;;;;;;;;;;;;;;24.55;42.82;95429.91;10523653;28;1854;-70
2022/07/14 17:59:27;;;;;;;;;;;;;;;24.55;42.80;95432.56;10523418;28;1814;-71
2022/07/14 18:04:28;;;;;;;;;;;;;;;24.56;42.85;95433.34;10506357;28;1843;-71
2022/07/14 18:09:30;;;;;;;;;;;;;;;24.57;42.88;95437.53;10522360;28;1972;-71
2022/07/14 18:14:31;;;;;;;;;;;;;;;24.57;43.02;95437.53;10524559;28;1842;-72
2022/07/14 18:19:31;;;;;;;;;;;;;;;24.56;42.95;95442.09;10509643;28;1800;-72
2022/07/14 18:24:32;;;;;;;;;;;;;;;24.57;42.95;95440.19;10521823;28;1888;-71
2022/07/14 18:29:32;;;;;;;;;;;;;;;24.59;43.02;95451.25;10525099;28;1882;-72
2022/07/14 18:34:32;;;;;;;;;;;;;;;24.59;42.88;95456.56;10521425;28;1788;-72
2022/07/14 18:39:33;;;;;;;;;;;;;;;24.60;42.92;95458.16;10520689;28;1882;-71
2022/07/14 18:49:57;;;;;;;;;;;;;;;24.61;43.08;95465.00;10507081;28;1755;-70
2022/07/14 18:54:57;;;;;;;;;;;;;;;24.61;43.11;95472.94;10525305;28;2116;-71
2022/07/14 18:59:58;;;;;;;;;;;;;;;24.61;43.04;95470.28;10506985;28;1865;-69
2022/07/14 19:04:58;;;;;;;;;;;;;;;24.62;42.93;95479.81;10525719;28;2083;-71
2022/07/14 19:09:59;;;;;;;;;;;;;;;24.63;43.00;95479.50;10526533;28;1764;-71
2022/07/14 19:14:59;;;;;;;;;;;;;;;24.64;43.32;95488.25;10506377;28;1834;-72
2022/07/14 19:20:00;;;;;;;;;;;;;;;24.65;43.29;95495.88;10505333;28;1831;-71
2022/07/14 19:25:00;;;;;;;;;;;;;;;24.64;43.37;95494.34;10518713;28;1973;-71
2022/07/14 19:30:00;;;;;;;;;;;;;;;24.65;43.19;95508.34;10525150;28;1920;-71
2022/07/14 19:35:01;;;;;;;;;;;;;;;24.65;43.03;95519.75;10520250;28;1878;-71
2022/07/14 19:40:02;;;;;;;;;;;;;;;24.65;43.26;95524.25;10524184;28;1787;-70
2022/07/14 19:45:03;;;;;;;;;;;;;;;24.66;43.35;95531.91;10523430;28;2024;-69
2022/07/14 19:50:03;;;;;;;;;;;;;;;24.66;43.56;95531.91;10484300;28;2020;-71
2022/07/14 19:55:05;;;;;;;;;;;;;;;24.65;43.28;95553.41;10531916;28;1803;-70
2022/07/14 20:00:07;;;;;;;;;;;;;;;24.67;43.44;95572.44;10522068;28;1917;-70
2022/07/14 20:05:09;;;;;;;;;;;;;;;24.66;43.46;95584.13;10526471;28;1898;-70
2022/07/14 20:10:09;;;;;;;;;;;;;;;24.67;43.39;95612.19;10522546;28;1820;-70
2022/07/14 20:15:09;;;;;;;;;;;;;;;24.67;43.39;95612.97;10522455;28;1863;-71
2022/07/14 20:20:10;;;;;;;;;;;;;;;24.68;43.35;95617.22;10521433;28;1870;-71
2022/07/14 20:25:11;;;;;;;;;;;;;;;24.69;43.45;95623.31;10525302;28;1973;-71
2022/07/14 20:35:31;;;;;;;;;;;;;;;24.69;43.55;95641.84;10520354;28;1839;-70
2022/07/14 20:40:32;;;;;;;;;;;;;;;24.70;43.46;95657.44;10501935;28;1747;-70
2022/07/14 20:45:32;;;;;;;;;;;;;;;24.71;43.48;95676.81;10530060;28;1981;-71
2022/07/14 20:50:33;;;;;;;;;;;;;;;24.71;43.74;95677.56;10531740;28;1982;-71
2022/07/14 20:55:33;;;;;;;;;;;;;;;24.71;43.78;95682.09;10527800;28;2137;-71
2022/07/14 21:00:33;;;;;;;;;;;;;;;24.71;43.69;95693.47;10526357;28;2221;-70
2022/07/14 21:05:35;;;;;;;;;;;;;;;24.72;43.70;95710.16;10511214;28;2178;-71
2022/07/14 21:10:35;;;;;;;;;;;;;;;24.73;43.53;95732.94;10509043;28;2206;-71
2022/07/14 21:15:36;;;;;;;;;;;;;;;24.73;43.76;95740.91;10508879;28;1992;-71
2022/07/14 21:20:37;;;;;;;;;;;;;;;24.73;43.60;95754.16;10526273;28;1800;-71
2022/07/14 21:25:37;;;;;;;;;;;;;;;24.72;43.81;95760.53;10526218;28;2197;-71
2022/07/14 21:30:40;;;;;;;;;;;;;;;24.72;43.65;95769.28;10523420;28;1938;-70
2022/07/14 21:35:40;;;;;;;;;;;;;;;24.73;43.63;95773.50;10515698;28;2298;-71
2022/07/14 21:40:41;;;;;;;;;;;;;;;24.73;43.65;95786.75;10529203;28;1933;-71
2022/07/14 21:45:42;;;;;;;;;;;;;;;24.73;43.48;95789.41;10528279;28;1979;-71
2022/07/14 21:50:42;;;;;;;;;;;;;;;24.75;43.59;95789.13;10528089;28;1815;-71
2022/07/14 21:55:42;;;;;;;;;;;;;;;24.75;43.45;95802.38;10505118;28;1915;-70
2022/07/14 22:00:43;;;;;;;;;;;;;;;24.75;43.68;95810.34;10525443;28;1866;-71
2022/07/14 22:05:43;;;;;;;;;;;;;;;24.74;43.52;95820.16;10524222;28;1902;-70
2022/07/14 22:10:43;;;;;;;;;;;;;;;24.74;43.72;95822.81;10520797;28;1804;-70
2022/07/14 22:15:44;;;;;;;;;;;;;;;24.74;43.60;95833.41;10522961;28;1980;-71
2022/07/14 22:20:44;;;;;;;;;;;;;;;24.75;43.34;95834.97;10519973;28;1939;-70
2022/07/14 22:25:44;;;;;;;;;;;;;;;24.75;43.55;95842.91;10523161;28;1910;-70
2022/07/14 22:30:45;;;;;;;;;;;;;;;24.76;43.74;95851.66;10503007;28;1821;-71
2022/07/14 22:35:45;;;;;;;;;;;;;;;24.76;43.89;95854.31;10517380;28;1744;-71
2022/07/14 22:40:46;;;;;;;;;;;;;;;24.76;43.54;95867.56;10526614;28;1844;-71
2022/07/14 22:45:46;;;;;;;;;;;;;;;24.77;43.72;95866.50;10527218;28;1917;-70
2022/07/14 22:50:46;;;;;;;;;;;;;;;24.76;43.61;95871.00;10525028;28;1819;-69
2022/07/14 22:55:47;;;;;;;;;;;;;;;24.76;43.80;95876.31;10508000;28;1799;-70
2022/07/14 23:00:47;;;;;;;;;;;;;;;24.76;43.91;95884.25;10521276;28;1677;-70
2022/07/14 23:05:48;;;;;;;;;;;;;;;24.77;43.91;95877.09;10512064;28;1918;-71
2022/07/14 23:10:48;;;;;;;;;;;;;;;24.68;42.04;95876.19;10523409;28;1819;-75
2022/07/14 23:15:48;;;;;;;;;;;;;;;24.42;41.04;95885.72;10497226;28;1897;-74
2022/07/14 23:20:49;;;;;;;;;;;;;;;24.21;40.41;95890.63;10519039;28;1853;-73
2022/07/14 23:25:50;;;;;;;;;;;;;;;24.05;40.18;95898.03;10517841;28;1971;-73
2022/07/14 23:30:51;;;;;;;;;;;;;;;23.93;40.11;95889.75;10521305;28;1812;-73
2022/07/14 23:35:52;;;;;;;;;;;;;;;23.92;40.22;95913.88;10518312;28;1939;-74
2022/07/14 23:40:53;;;;;;;;;;;;;;;23.90;40.01;95932.72;10524201;28;1789;-74
2022/07/14 23:45:53;;;;;;;;;;;;;;;23.89;40.22;95909.16;10521987;28;1905;-74
2022/07/14 23:50:53;;;;;;;;;;;;;;;23.85;41.12;95908.97;10524212;28;1796;-72
2022/07/14 23:55:54;;;;;;;;;;;;;;;23.84;41.25;95906.59;10505539;28;1801;-74
